Time;durP1;ratioP1;P1;durP2;ratioP2;P2;SDS_P1;SDS_P2;PMS_P1;PMS_P2;Temp;Humidity;BMP_temperature;BMP_pressure;BME280_temperature;BME280_humidity;BME280_pressure;Samples;Min_cycle;Max_cycle;Signal;HPM_P1;HPM_P2
2023/04/20 00:00:48;;;;;;;18.35;12.30;;;;;;;;;;5052934;28;20052;-76
2023/04/20 00:03:17;;;;;;;19.90;12.48;;;;;;;;;;5052468;28;20055;-76
2023/04/20 00:05:48;;;;;;;18.92;12.90;;;;;;;;;;5056243;28;20048;-75
2023/04/20 00:08:16;;;;;;;18.75;12.65;;;;;;;;;;5058897;28;20480;-76
2023/04/20 00:10:45;;;;;;;20.08;13.02;;;;;;;;;;5064654;28;20585;-78
2023/04/20 00:13:12;;;;;;;20.52;12.52;;;;;;;;;;5075867;28;20055;-76
2023/04/20 00:15:39;;;;;;;22.77;13.30;;;;;;;;;;5078631;28;20057;-77
2023/04/20 00:18:05;;;;;;;19.52;12.60;;;;;;;;;;5078100;28;20045;-76
2023/04/20 00:20:32;;;;;;;19.88;12.68;;;;;;;;;;5076898;28;20045;-75
2023/04/20 00:22:59;;;;;;;19.88;13.27;;;;;;;;;;5078696;28;20037;-76
2023/04/20 00:25:26;;;;;;;18.95;12.82;;;;;;;;;;5077500;28;20033;-76
2023/04/20 00:27:54;;;;;;;18.15;12.75;;;;;;;;;;5076816;28;20132;-75
2023/04/20 00:30:21;;;;;;;20.42;12.60;;;;;;;;;;5077544;28;20055;-75
2023/04/20 00:32:48;;;;;;;20.05;12.48;;;;;;;;;;5078031;28;20049;-77
2023/04/20 00:35:14;;;;;;;20.80;13.85;;;;;;;;;;5076448;28;20029;-77
2023/04/20 00:37:41;;;;;;;20.70;13.07;;;;;;;;;;5077570;28;20104;-75
2023/04/20 00:40:09;;;;;;;22.05;13.32;;;;;;;;;;5078357;28;20048;-75
2023/04/20 00:42:35;;;;;;;18.50;11.32;;;;;;;;;;5077715;28;20045;-76
2023/04/20 00:45:04;;;;;;;20.38;13.10;;;;;;;;;;5074252;28;20064;-76
2023/04/20 00:47:31;;;;;;;18.20;11.77;;;;;;;;;;5076821;28;20116;-76
2023/04/20 00:49:57;;;;;;;19.90;12.07;;;;;;;;;;5077808;28;20029;-77
2023/04/20 00:52:24;;;;;;;20.20;12.88;;;;;;;;;;5078470;28;20037;-77
2023/04/20 00:54:50;;;;;;;20.45;12.63;;;;;;;;;;5077186;28;20140;-76
2023/04/20 00:57:22;;;;;;;22.30;13.43;;;;;;;;;;5078137;28;20061;-76
2023/04/20 00:59:50;;;;;;;21.33;14.10;;;;;;;;;;5077822;28;20071;-77
2023/04/20 01:02:18;;;;;;;18.38;11.65;;;;;;;;;;5077829;28;20045;-76
2023/04/20 01:04:45;;;;;;;21.27;12.57;;;;;;;;;;5077601;28;20060;-76
2023/04/20 01:07:12;;;;;;;19.17;12.15;;;;;;;;;;5078081;28;20045;-76
2023/04/20 01:09:38;;;;;;;20.55;12.32;;;;;;;;;;5077780;28;20140;-76
2023/04/20 01:12:06;;;;;;;15.95;10.80;;;;;;;;;;5078022;28;20043;-77
2023/04/20 01:14:32;;;;;;;20.58;12.52;;;;;;;;;;5077414;28;20033;-76
2023/04/20 01:16:59;;;;;;;20.15;11.73;;;;;;;;;;5077729;28;20098;-76
2023/04/20 01:19:27;;;;;;;16.95;10.50;;;;;;;;;;5077497;28;20045;-77
2023/04/20 01:21:53;;;;;;;18.75;11.45;;;;;;;;;;5076445;28;20079;-78
2023/04/20 01:24:21;;;;;;;16.00;9.52;;;;;;;;;;5077287;28;20055;-76
2023/04/20 01:26:48;;;;;;;17.38;10.80;;;;;;;;;;5076833;28;20179;-77
2023/04/20 01:29:15;;;;;;;15.70;9.73;;;;;;;;;;5076547;28;20048;-77
2023/04/20 01:31:41;;;;;;;13.05;8.05;;;;;;;;;;5076735;28;20064;-76
2023/04/20 01:34:08;;;;;;;14.60;7.97;;;;;;;;;;5076232;28;20056;-77
2023/04/20 01:36:34;;;;;;;15.63;9.27;;;;;;;;;;5077067;28;20083;-75
2023/04/20 01:39:01;;;;;;;12.40;8.35;;;;;;;;;;5077416;28;20048;-75
2023/04/20 01:41:29;;;;;;;14.05;8.35;;;;;;;;;;5076858;28;20126;-75
2023/04/20 01:43:56;;;;;;;13.48;8.48;;;;;;;;;;5076990;28;20113;-76
2023/04/20 01:46:22;;;;;;;14.32;9.10;;;;;;;;;;5077490;28;20032;-76
2023/04/20 01:48:49;;;;;;;14.90;8.77;;;;;;;;;;5076790;28;20036;-75
2023/04/20 01:51:15;;;;;;;15.18;9.65;;;;;;;;;;5076865;28;20096;-75
2023/04/20 01:53:42;;;;;;;15.82;9.48;;;;;;;;;;5076883;28;20076;-76
2023/04/20 01:56:09;;;;;;;15.23;9.02;;;;;;;;;;5076158;28;20060;-77
2023/04/20 01:58:36;;;;;;;14.93;9.35;;;;;;;;;;5075967;28;20053;-77
2023/04/20 02:01:03;;;;;;;15.82;9.60;;;;;;;;;;5074205;28;20104;-76
2023/04/20 02:03:30;;;;;;;14.65;9.43;;;;;;;;;;5055568;28;20044;-76
2023/04/20 02:05:56;;;;;;;16.35;9.50;;;;;;;;;;5055272;28;20140;-77
2023/04/20 02:08:23;;;;;;;14.77;8.52;;;;;;;;;;5053353;28;20057;-78
2023/04/20 02:10:50;;;;;;;14.43;8.80;;;;;;;;;;5037340;28;20460;-77
2023/04/20 02:13:16;;;;;;;10.88;7.78;;;;;;;;;;5051646;28;20069;-76
2023/04/20 02:15:44;;;;;;;13.48;9.07;;;;;;;;;;5054822;28;20080;-76
2023/04/20 02:18:11;;;;;;;14.63;9.02;;;;;;;;;;5042436;28;20045;-77
2023/04/20 02:20:38;;;;;;;14.48;9.20;;;;;;;;;;5039058;28;20041;-78
2023/04/20 02:23:05;;;;;;;13.65;9.05;;;;;;;;;;5052227;28;20072;-78
2023/04/20 02:25:32;;;;;;;16.00;8.85;;;;;;;;;;5060377;28;20091;-76
2023/04/20 02:27:58;;;;;;;14.02;8.70;;;;;;;;;;5057226;28;20132;-78
2023/04/20 02:30:25;;;;;;;14.18;8.73;;;;;;;;;;5062188;28;20064;-77
2023/04/20 02:32:53;;;;;;;14.52;9.23;;;;;;;;;;5070519;28;20500;-77
2023/04/20 02:35:20;;;;;;;13.70;8.27;;;;;;;;;;5068663;28;20076;-78
2023/04/20 02:37:47;;;;;;;15.85;9.07;;;;;;;;;;5072319;28;20025;-78
2023/04/20 02:40:14;;;;;;;13.70;7.68;;;;;;;;;;5056004;28;20132;-77
2023/04/20 02:42:41;;;;;;;12.15;7.97;;;;;;;;;;5055033;28;20059;-77
2023/04/20 02:45:09;;;;;;;13.68;7.68;;;;;;;;;;5056062;28;20052;-77
2023/04/20 02:47:35;;;;;;;12.38;7.78;;;;;;;;;;5057826;28;20139;-77
2023/04/20 02:50:04;;;;;;;13.40;7.70;;;;;;;;;;5056477;28;20951;-77
2023/04/20 02:52:30;;;;;;;13.05;8.43;;;;;;;;;;5053522;28;20083;-78
2023/04/20 02:54:57;;;;;;;11.50;7.07;;;;;;;;;;5053695;28;20131;-77
2023/04/20 02:57:25;;;;;;;13.05;6.95;;;;;;;;;;5053203;28;20068;-77
2023/04/20 02:59:51;;;;;;;10.68;6.35;;;;;;;;;;5053304;28;20048;-78
2023/04/20 03:02:18;;;;;;;10.40;6.22;;;;;;;;;;5053501;28;20045;-77
2023/04/20 03:04:45;;;;;;;10.95;7.10;;;;;;;;;;5053560;28;20119;-77
2023/04/20 03:07:13;;;;;;;11.00;6.35;;;;;;;;;;5053441;28;20041;-77
2023/04/20 03:09:39;;;;;;;11.77;6.70;;;;;;;;;;5053510;28;20045;-77
2023/04/20 03:12:06;;;;;;;12.73;6.65;;;;;;;;;;5053657;28;20045;-76
2023/04/20 03:14:33;;;;;;;11.05;6.28;;;;;;;;;;5052915;28;20518;-77
2023/04/20 03:17:00;;;;;;;11.50;6.85;;;;;;;;;;5053029;28;20049;-77
2023/04/20 03:19:27;;;;;;;13.18;7.20;;;;;;;;;;5053031;28;20107;-76
2023/04/20 03:21:53;;;;;;;11.98;6.80;;;;;;;;;;5052921;28;20140;-76
2023/04/20 03:24:22;;;;;;;13.55;7.28;;;;;;;;;;5054262;28;20048;-78
2023/04/20 03:26:49;;;;;;;11.32;6.88;;;;;;;;;;5054303;28;20049;-78
2023/04/20 03:29:16;;;;;;;13.95;8.27;;;;;;;;;;5055240;28;20117;-78
2023/04/20 03:31:42;;;;;;;15.25;8.25;;;;;;;;;;5055269;28;20059;-79
2023/04/20 03:34:09;;;;;;;13.80;8.73;;;;;;;;;;5055103;28;20047;-78
2023/04/20 03:36:36;;;;;;;12.38;8.20;;;;;;;;;;5055124;28;20056;-78
2023/04/20 03:39:03;;;;;;;13.43;8.43;;;;;;;;;;5054524;28;20088;-78
2023/04/20 03:41:32;;;;;;;16.15;9.00;;;;;;;;;;5055420;28;20049;-77
2023/04/20 03:43:58;;;;;;;15.18;8.95;;;;;;;;;;5059487;28;20073;-78
2023/04/20 03:46:28;;;;;;;14.95;9.18;;;;;;;;;;5061982;28;20579;-78
2023/04/20 03:48:56;;;;;;;15.82;10.05;;;;;;;;;;5062384;28;20476;-78
2023/04/20 03:51:25;;;;;;;17.25;10.52;;;;;;;;;;5065363;28;20075;-79
2023/04/20 03:53:51;;;;;;;16.80;10.20;;;;;;;;;;5061637;28;20045;-77
2023/04/20 03:56:18;;;;;;;15.38;9.43;;;;;;;;;;5059047;28;20041;-78
2023/04/20 03:58:47;;;;;;;15.82;9.50;;;;;;;;;;5058007;28;20140;-78
2023/04/20 04:01:14;;;;;;;18.95;9.88;;;;;;;;;;5059283;28;20098;-78
2023/04/20 04:03:41;;;;;;;17.63;10.20;;;;;;;;;;5058934;28;20135;-78
2023/04/20 04:06:09;;;;;;;14.20;8.40;;;;;;;;;;5058990;28;20045;-78
2023/04/20 04:08:36;;;;;;;12.65;7.20;;;;;;;;;;5058627;28;20124;-78
2023/04/20 04:11:02;;;;;;;11.10;6.75;;;;;;;;;;5059622;28;20073;-79
2023/04/20 04:13:29;;;;;;;11.27;6.25;;;;;;;;;;5059686;28;20131;-78
2023/04/20 04:15:57;;;;;;;11.20;6.90;;;;;;;;;;5060097;28;20045;-81
2023/04/20 04:18:24;;;;;;;11.93;6.38;;;;;;;;;;5059210;28;20469;-78
2023/04/20 04:20:51;;;;;;;9.45;5.97;;;;;;;;;;5058869;28;20108;-78
2023/04/20 04:23:17;;;;;;;9.10;6.13;;;;;;;;;;5058661;28;20056;-79
2023/04/20 04:25:44;;;;;;;10.73;6.85;;;;;;;;;;5058889;28;20486;-78
2023/04/20 04:28:13;;;;;;;10.48;6.57;;;;;;;;;;5058644;28;20044;-78
2023/04/20 04:30:40;;;;;;;9.98;6.10;;;;;;;;;;5058094;28;20553;-78
2023/04/20 04:33:10;;;;;;;11.25;6.60;;;;;;;;;;5057778;28;20051;-78
2023/04/20 04:35:39;;;;;;;9.63;6.43;;;;;;;;;;5058845;28;20095;-78
2023/04/20 04:38:06;;;;;;;11.07;6.68;;;;;;;;;;5057913;28;20053;-78
2023/04/20 04:40:33;;;;;;;13.23;7.07;;;;;;;;;;5058948;28;20076;-78
2023/04/20 04:43:00;;;;;;;10.20;6.47;;;;;;;;;;5059047;28;20081;-78
2023/04/20 04:45:27;;;;;;;13.43;8.15;;;;;;;;;;5058643;28;20412;-79
2023/04/20 04:47:53;;;;;;;14.18;7.50;;;;;;;;;;5059050;28;20073;-79
2023/04/20 04:50:22;;;;;;;12.43;7.93;;;;;;;;;;5059021;28;20068;-79
2023/04/20 04:52:49;;;;;;;12.88;7.85;;;;;;;;;;5058660;28;20048;-78
2023/04/20 04:55:15;;;;;;;13.38;7.75;;;;;;;;;;5069011;28;20045;-77
2023/04/20 04:57:42;;;;;;;11.23;7.55;;;;;;;;;;5069778;28;20051;-77
2023/04/20 05:00:11;;;;;;;11.73;7.03;;;;;;;;;;5071698;28;20080;-78
2023/04/20 05:02:37;;;;;;;11.18;7.18;;;;;;;;;;5064968;28;20056;-78
2023/04/20 05:05:05;;;;;;;11.15;6.72;;;;;;;;;;5057775;28;20057;-78
2023/04/20 05:07:33;;;;;;;10.90;6.82;;;;;;;;;;5056534;28;20127;-78
2023/04/20 05:10:00;;;;;;;11.80;7.68;;;;;;;;;;5056503;28;20041;-78
2023/04/20 05:12:26;;;;;;;10.63;6.38;;;;;;;;;;5056865;28;20077;-78
2023/04/20 05:14:55;;;;;;;10.63;7.18;;;;;;;;;;5057220;28;20088;-78
2023/04/20 05:17:22;;;;;;;11.00;7.13;;;;;;;;;;5057377;28;20132;-79
2023/04/20 05:19:49;;;;;;;12.23;7.70;;;;;;;;;;5060147;28;20080;-77
2023/04/20 05:22:16;;;;;;;11.45;6.78;;;;;;;;;;5065491;28;20045;-79
2023/04/20 05:24:44;;;;;;;9.75;6.95;;;;;;;;;;5061659;28;20048;-77
2023/04/20 05:27:10;;;;;;;13.35;7.18;;;;;;;;;;5067752;28;20041;-77
2023/04/20 05:29:41;;;;;;;10.98;7.00;;;;;;;;;;5056704;28;20044;-77
2023/04/20 05:32:07;;;;;;;10.20;6.65;;;;;;;;;;5055608;28;20132;-77
2023/04/20 05:34:34;;;;;;;11.68;7.63;;;;;;;;;;5055635;28;20061;-78
2023/04/20 05:37:03;;;;;;;10.43;7.25;;;;;;;;;;5055483;28;20057;-78
2023/04/20 05:39:30;;;;;;;10.95;6.85;;;;;;;;;;5058566;28;20509;-78
2023/04/20 05:41:58;;;;;;;12.13;7.38;;;;;;;;;;5055814;28;20052;-78
2023/04/20 05:44:25;;;;;;;9.43;5.88;;;;;;;;;;5056313;28;20445;-78
2023/04/20 05:46:51;;;;;;;9.65;6.20;;;;;;;;;;5054283;28;20072;-76
2023/04/20 05:49:18;;;;;;;11.07;6.13;;;;;;;;;;5053581;28;20084;-77
2023/04/20 05:51:45;;;;;;;10.05;6.30;;;;;;;;;;5053273;28;20129;-77
2023/04/20 05:54:12;;;;;;;9.85;6.15;;;;;;;;;;5053675;28;20056;-76
2023/04/20 05:56:38;;;;;;;11.35;6.40;;;;;;;;;;5053954;28;20052;-76
2023/04/20 05:59:06;;;;;;;13.95;7.28;;;;;;;;;;5054207;28;20049;-76
2023/04/20 06:01:33;;;;;;;11.07;6.88;;;;;;;;;;5048385;28;20060;-77
2023/04/20 06:04:00;;;;;;;12.25;7.32;;;;;;;;;;5035585;28;20125;-78
2023/04/20 06:06:26;;;;;;;11.35;7.20;;;;;;;;;;5035692;28;20053;-78
2023/04/20 06:08:53;;;;;;;10.75;7.47;;;;;;;;;;5034929;28;20467;-78
2023/04/20 06:11:20;;;;;;;10.95;6.80;;;;;;;;;;5065847;22;20041;-58
2023/04/20 06:13:47;;;;;;;9.95;6.50;;;;;;;;;;5052338;28;20433;-58
2023/04/20 06:16:15;;;;;;;11.50;7.45;;;;;;;;;;5052365;28;20045;-57
2023/04/20 06:18:42;;;;;;;10.00;6.60;;;;;;;;;;5052175;28;20171;-58
2023/04/20 06:21:10;;;;;;;10.05;5.93;;;;;;;;;;5052364;28;20099;-57
2023/04/20 06:23:37;;;;;;;10.15;5.95;;;;;;;;;;5052267;28;20436;-57
2023/04/20 06:26:07;;;;;;;8.75;5.80;;;;;;;;;;5052494;28;20579;-58
2023/04/20 06:28:34;;;;;;;9.85;5.18;;;;;;;;;;5051840;28;20067;-56
2023/04/20 06:31:01;;;;;;;8.43;5.75;;;;;;;;;;5051986;28;20057;-58
2023/04/20 06:33:30;;;;;;;8.48;5.32;;;;;;;;;;5052667;28;20110;-58
2023/04/20 06:35:57;;;;;;;10.45;6.15;;;;;;;;;;5052718;28;20489;-57
2023/04/20 06:38:25;;;;;;;9.50;6.25;;;;;;;;;;5052172;28;20053;-55
2023/04/20 06:40:52;;;;;;;10.43;7.15;;;;;;;;;;5052132;28;20095;-58
2023/04/20 06:43:19;;;;;;;11.32;7.40;;;;;;;;;;5052073;28;20102;-57
2023/04/20 06:45:46;;;;;;;12.13;7.50;;;;;;;;;;5051979;28;20481;-54
2023/04/20 06:48:13;;;;;;;13.90;7.93;;;;;;;;;;5052350;28;20079;-57
2023/04/20 06:50:41;;;;;;;11.90;7.93;;;;;;;;;;5051929;28;20056;-58
2023/04/20 06:53:08;;;;;;;11.70;7.85;;;;;;;;;;5051568;28;20422;-55
2023/04/20 06:55:35;;;;;;;11.45;7.35;;;;;;;;;;5051970;28;20437;-55
2023/04/20 06:58:02;;;;;;;12.85;8.20;;;;;;;;;;5051710;28;20107;-57
2023/04/20 07:00:29;;;;;;;12.15;7.78;;;;;;;;;;5051824;28;20394;-57
2023/04/20 07:02:55;;;;;;;12.35;8.15;;;;;;;;;;5051689;28;20098;-54
2023/04/20 07:05:23;;;;;;;12.68;7.90;;;;;;;;;;5052728;28;20427;-57
2023/04/20 07:07:51;;;;;;;12.80;7.78;;;;;;;;;;5051561;28;20045;-58
2023/04/20 07:10:18;;;;;;;12.27;7.93;;;;;;;;;;5051578;28;20053;-57
2023/04/20 07:12:45;;;;;;;13.05;8.32;;;;;;;;;;5051853;28;20417;-56
2023/04/20 07:15:12;;;;;;;11.32;7.63;;;;;;;;;;5051439;28;20055;-56
2023/04/20 07:17:39;;;;;;;12.23;7.78;;;;;;;;;;5051798;28;20099;-56
2023/04/20 07:20:08;;;;;;;12.73;7.97;;;;;;;;;;5052310;28;20144;-57
2023/04/20 07:22:35;;;;;;;12.50;8.55;;;;;;;;;;5056142;28;20078;-54
2023/04/20 07:25:05;;;;;;;10.45;7.28;;;;;;;;;;5055588;28;20057;-56
2023/04/20 07:27:35;;;;;;;11.85;7.75;;;;;;;;;;5055969;28;20110;-53
2023/04/20 07:30:02;;;;;;;12.27;7.55;;;;;;;;;;5055363;28;20049;-56
2023/04/20 07:32:29;;;;;;;10.30;6.68;;;;;;;;;;5055488;28;20053;-55
2023/04/20 07:34:56;;;;;;;10.80;6.05;;;;;;;;;;5055059;28;20486;-56
2023/04/20 07:37:23;;;;;;;9.35;5.82;;;;;;;;;;5050674;28;20050;-61
2023/04/20 07:39:51;;;;;;;9.68;6.57;;;;;;;;;;5040871;28;20052;-57
2023/04/20 07:42:19;;;;;;;9.73;6.95;;;;;;;;;;5053419;28;20049;-58
2023/04/20 07:44:46;;;;;;;11.23;7.15;;;;;;;;;;5053314;28;20049;-57
2023/04/20 07:47:13;;;;;;;11.25;7.05;;;;;;;;;;5053094;28;20053;-58
2023/04/20 07:49:41;;;;;;;11.38;7.55;;;;;;;;;;5052838;28;20107;-56
2023/04/20 07:52:08;;;;;;;9.82;6.43;;;;;;;;;;5052966;28;20099;-56
2023/04/20 07:54:35;;;;;;;9.45;6.82;;;;;;;;;;5052829;28;20436;-54
2023/04/20 07:57:19;;;;;;;10.48;6.47;;;;;;;;;;5053159;28;20053;-58
2023/04/20 08:03:07;;;;;;;11.90;7.30;;;;;;;;;;5049277;28;20124;-58
2023/04/20 08:05:34;;;;;;;10.02;6.88;;;;;;;;;;5053850;28;20477;-55
2023/04/20 08:11:23;;;;;;;12.23;6.95;;;;;;;;;;5050246;28;20090;-58
2023/04/20 08:13:52;;;;;;;10.82;6.75;;;;;;;;;;5052777;28;20445;-56
2023/04/20 08:16:19;;;;;;;10.23;6.60;;;;;;;;;;5051987;28;20048;-58
2023/04/20 08:18:46;;;;;;;9.95;6.88;;;;;;;;;;5051312;28;20087;-62
2023/04/20 08:21:13;;;;;;;10.45;6.70;;;;;;;;;;5052845;28;20055;-56
2023/04/20 08:23:40;;;;;;;10.10;6.93;;;;;;;;;;5053028;28;20507;-58
2023/04/20 08:26:07;;;;;;;8.88;6.35;;;;;;;;;;5052525;28;20497;-61
2023/04/20 08:28:33;;;;;;;10.68;5.95;;;;;;;;;;5052478;28;20107;-57
2023/04/20 08:31:02;;;;;;;8.30;5.95;;;;;;;;;;5052278;28;20500;-58
2023/04/20 08:33:28;;;;;;;9.90;6.45;;;;;;;;;;5052197;28;20059;-57
2023/04/20 08:35:55;;;;;;;9.82;6.38;;;;;;;;;;5052276;28;20053;-57
2023/04/20 08:38:23;;;;;;;10.88;6.55;;;;;;;;;;5050991;28;20057;-56
2023/04/20 08:40:50;;;;;;;10.15;6.60;;;;;;;;;;5051815;28;20056;-58
2023/04/20 08:43:17;;;;;;;10.57;7.07;;;;;;;;;;5052425;28;20490;-57
2023/04/20 08:45:48;;;;;;;11.18;7.65;;;;;;;;;;5052237;28;20056;-57
2023/04/20 08:48:18;;;;;;;10.00;6.53;;;;;;;;;;5052148;28;20103;-56
2023/04/20 08:50:45;;;;;;;10.10;7.05;;;;;;;;;;5052368;28;20490;-57
2023/04/20 08:53:13;;;;;;;9.40;6.28;;;;;;;;;;5052093;28;20053;-57
2023/04/20 08:55:39;;;;;;;9.90;6.72;;;;;;;;;;5052142;28;20243;-58
2023/04/20 08:58:06;;;;;;;9.27;6.30;;;;;;;;;;5051668;28;20045;-58
2023/04/20 09:00:33;;;;;;;9.80;5.88;;;;;;;;;;5051603;28;20044;-57
2023/04/20 09:03:00;;;;;;;9.77;7.00;;;;;;;;;;5034005;28;20049;-58
2023/04/20 09:05:30;;;;;;;9.27;6.30;;;;;;;;;;5032284;28;20498;-57
2023/04/20 09:07:59;;;;;;;12.27;6.70;;;;;;;;;;5032110;28;20057;-55
2023/04/20 09:10:27;;;;;;;10.85;6.40;;;;;;;;;;5031726;28;20045;-57
2023/04/20 09:12:54;;;;;;;10.60;7.15;;;;;;;;;;5031595;28;20049;-58
2023/04/20 09:15:28;;;;;;;9.70;6.32;;;;;;;;;;5031754;28;20054;-58
2023/04/20 09:17:55;;;;;;;10.35;6.63;;;;;;;;;;5031944;28;20503;-58
2023/04/20 09:20:32;;;;;;;11.30;6.95;;;;;;;;;;5031498;28;20059;-57
2023/04/20 09:23:10;;;;;;;12.18;7.60;;;;;;;;;;5031732;28;20100;-58
2023/04/20 09:25:39;;;;;;;10.45;6.40;;;;;;;;;;5031517;28;20053;-58
2023/04/20 09:28:07;;;;;;;11.68;8.35;;;;;;;;;;5030938;28;20053;-57
2023/04/20 09:30:39;;;;;;;12.60;7.45;;;;;;;;;;5031537;28;20050;-58
2023/04/20 09:33:09;;;;;;;12.88;7.40;;;;;;;;;;5031471;28;20487;-58
2023/04/20 09:35:39;;;;;;;10.52;7.35;;;;;;;;;;5030801;28;20049;-56
2023/04/20 09:38:06;;;;;;;11.32;7.05;;;;;;;;;;5031066;28;20494;-58
2023/04/20 09:40:34;;;;;;;10.95;7.38;;;;;;;;;;5030873;28;20506;-57
2023/04/20 09:43:05;;;;;;;10.43;6.85;;;;;;;;;;5030440;28;20057;-58
2023/04/20 09:45:32;;;;;;;11.43;6.97;;;;;;;;;;5030883;28;20054;-58
2023/04/20 09:47:59;;;;;;;10.90;6.88;;;;;;;;;;5030634;28;20085;-57
2023/04/20 09:50:26;;;;;;;9.40;6.55;;;;;;;;;;5039067;28;20510;-55
2023/04/20 09:52:55;;;;;;;12.68;7.68;;;;;;;;;;5050616;28;20415;-57
2023/04/20 09:55:25;;;;;;;11.68;7.53;;;;;;;;;;5050656;28;20481;-57
2023/04/20 09:57:53;;;;;;;10.73;7.07;;;;;;;;;;5050361;28;20560;-58
2023/04/20 10:00:21;;;;;;;10.65;7.28;;;;;;;;;;5050757;28;20053;-58
2023/04/20 10:02:49;;;;;;;12.30;7.95;;;;;;;;;;5033880;28;20060;-58
2023/04/20 10:05:16;;;;;;;12.68;8.05;;;;;;;;;;5030774;28;20167;-58
2023/04/20 10:07:43;;;;;;;11.88;7.65;;;;;;;;;;5030364;28;20409;-57
2023/04/20 10:10:13;;;;;;;12.02;7.50;;;;;;;;;;5030165;28;20112;-58
2023/04/20 10:12:50;;;;;;;11.30;7.10;;;;;;;;;;5030413;28;20395;-58
2023/04/20 10:15:18;;;;;;;12.50;7.32;;;;;;;;;;5030129;28;20054;-58
2023/04/20 10:17:45;;;;;;;11.80;7.32;;;;;;;;;;5030075;28;20045;-58
2023/04/20 10:20:22;;;;;;;11.52;6.88;;;;;;;;;;5030565;28;20057;-56
2023/04/20 10:22:48;;;;;;;10.63;7.65;;;;;;;;;;5030377;28;20103;-57
2023/04/20 10:25:19;;;;;;;10.57;7.47;;;;;;;;;;5030073;28;20139;-57
2023/04/20 10:27:57;;;;;;;11.13;7.85;;;;;;;;;;5030730;28;20057;-58
2023/04/20 10:30:25;;;;;;;11.13;7.45;;;;;;;;;;5049838;28;20052;-57
2023/04/20 10:33:03;;;;;;;12.02;7.35;;;;;;;;;;5049763;28;20060;-58
2023/04/20 10:35:41;;;;;;;10.45;6.80;;;;;;;;;;5050281;28;20240;-59
2023/04/20 10:38:09;;;;;;;9.80;6.70;;;;;;;;;;5050273;28;20049;-57
2023/04/20 10:40:38;;;;;;;9.38;7.00;;;;;;;;;;5049722;28;20087;-57
2023/04/20 10:43:05;;;;;;;10.75;8.30;;;;;;;;;;5049854;28;20053;-54
2023/04/20 10:45:35;;;;;;;10.63;7.18;;;;;;;;;;5049663;28;20084;-57
2023/04/20 10:48:08;;;;;;;12.55;7.72;;;;;;;;;;5049609;28;20081;-57
2023/04/20 10:50:35;;;;;;;11.77;7.25;;;;;;;;;;5049449;28;20049;-57
2023/04/20 10:53:02;;;;;;;10.00;7.00;;;;;;;;;;5049487;28;20052;-58
2023/04/20 10:55:30;;;;;;;11.73;7.78;;;;;;;;;;5049563;28;20045;-58
2023/04/20 10:57:58;;;;;;;10.80;7.75;;;;;;;;;;5049358;28;20488;-58
2023/04/20 11:00:28;;;;;;;11.95;7.53;;;;;;;;;;5049678;28;20560;-57
2023/04/20 11:02:56;;;;;;;11.27;7.83;;;;;;;;;;5049836;28;20048;-58
2023/04/20 11:05:25;;;;;;;10.10;7.30;;;;;;;;;;5049710;28;20536;-57
2023/04/20 11:07:53;;;;;;;10.70;7.40;;;;;;;;;;5049471;28;20057;-58
2023/04/20 11:10:20;;;;;;;10.90;7.55;;;;;;;;;;5049483;28;20415;-56
2023/04/20 11:12:47;;;;;;;11.63;7.68;;;;;;;;;;5049630;28;20114;-58
2023/04/20 11:15:15;;;;;;;11.20;7.40;;;;;;;;;;5049657;28;20052;-57
2023/04/20 11:17:42;;;;;;;12.80;8.13;;;;;;;;;;5049310;28;20057;-56
2023/04/20 11:20:12;;;;;;;10.02;7.22;;;;;;;;;;5049596;28;20132;-58
2023/04/20 11:22:40;;;;;;;9.02;6.88;;;;;;;;;;5052801;28;20117;-55
2023/04/20 11:25:09;;;;;;;8.85;6.60;;;;;;;;;;5054343;28;20052;-55
2023/04/20 11:27:36;;;;;;;13.40;7.63;;;;;;;;;;5054600;28;20506;-58
2023/04/20 11:30:06;;;;;;;10.85;7.00;;;;;;;;;;5054498;28;20048;-55
2023/04/20 11:32:36;;;;;;;11.30;7.75;;;;;;;;;;5055289;28;20183;-56
2023/04/20 11:35:06;;;;;;;10.48;7.10;;;;;;;;;;5055207;28;20220;-56
2023/04/20 11:37:33;;;;;;;9.05;6.95;;;;;;;;;;5054489;28;20096;-56
2023/04/20 11:40:00;;;;;;;9.60;7.30;;;;;;;;;;5055031;28;20099;-53
2023/04/20 11:42:27;;;;;;;11.10;7.47;;;;;;;;;;5054877;28;20049;-55
2023/04/20 11:44:54;;;;;;;10.18;7.55;;;;;;;;;;5054500;28;20053;-57
2023/04/20 11:47:20;;;;;;;10.82;7.97;;;;;;;;;;5054714;28;20053;-54
2023/04/20 11:49:48;;;;;;;11.68;8.30;;;;;;;;;;5053248;28;20048;-56
2023/04/20 11:52:16;;;;;;;10.75;7.65;;;;;;;;;;5053816;28;20454;-56
2023/04/20 11:54:42;;;;;;;12.70;7.70;;;;;;;;;;5053849;28;20079;-56
2023/04/20 11:57:10;;;;;;;12.45;7.97;;;;;;;;;;5053113;28;20128;-56
2023/04/20 11:59:36;;;;;;;11.25;8.55;;;;;;;;;;5054151;28;20057;-54
2023/04/20 12:02:04;;;;;;;12.45;8.50;;;;;;;;;;5053583;28;20052;-54
2023/04/20 12:04:31;;;;;;;11.02;7.93;;;;;;;;;;5053425;28;20059;-56
2023/04/20 12:07:01;;;;;;;11.40;7.70;;;;;;;;;;5055798;28;20088;-55
2023/04/20 12:09:29;;;;;;;11.23;7.55;;;;;;;;;;5057028;28;20095;-57
2023/04/20 12:11:56;;;;;;;10.68;7.93;;;;;;;;;;5054849;28;20049;-58
2023/04/20 12:14:23;;;;;;;10.52;7.63;;;;;;;;;;5052492;28;20144;-56
2023/04/20 12:16:50;;;;;;;11.95;8.02;;;;;;;;;;5052173;28;20056;-57
2023/04/20 12:19:16;;;;;;;12.35;8.60;;;;;;;;;;5052085;28;20095;-56
2023/04/20 12:21:45;;;;;;;11.43;7.93;;;;;;;;;;5052200;28;20052;-55
2023/04/20 12:24:13;;;;;;;10.63;7.35;;;;;;;;;;5053153;28;20066;-52
2023/04/20 12:26:40;;;;;;;11.15;8.05;;;;;;;;;;5052552;28;20045;-57
2023/04/20 12:29:07;;;;;;;12.20;7.63;;;;;;;;;;5052245;28;20127;-55
2023/04/20 12:31:34;;;;;;;12.48;7.70;;;;;;;;;;5052002;28;20102;-55
2023/04/20 12:34:01;;;;;;;10.35;7.43;;;;;;;;;;5052284;28;20053;-55
2023/04/20 12:36:28;;;;;;;10.80;7.97;;;;;;;;;;5052400;28;20049;-56
2023/04/20 12:38:54;;;;;;;11.15;7.25;;;;;;;;;;5051916;28;20051;-56
2023/04/20 12:41:23;;;;;;;11.95;8.35;;;;;;;;;;5052469;28;20053;-54
2023/04/20 12:43:50;;;;;;;11.80;7.85;;;;;;;;;;5052117;28;20045;-56
2023/04/20 12:46:16;;;;;;;12.40;8.20;;;;;;;;;;5052084;28;20106;-56
2023/04/20 12:48:44;;;;;;;14.32;8.68;;;;;;;;;;5051948;28;20579;-56
2023/04/20 12:51:11;;;;;;;11.30;8.18;;;;;;;;;;5052332;28;20457;-56
2023/04/20 12:53:38;;;;;;;14.10;8.40;;;;;;;;;;5051760;28;20048;-56
2023/04/20 12:56:06;;;;;;;12.52;8.18;;;;;;;;;;5052054;28;20151;-56
2023/04/20 12:58:34;;;;;;;11.75;7.78;;;;;;;;;;5032088;28;20558;-57
2023/04/20 13:01:01;;;;;;;12.82;8.88;;;;;;;;;;5033223;28;20522;-56
2023/04/20 13:03:27;;;;;;;14.15;8.70;;;;;;;;;;5051423;28;20099;-56
2023/04/20 13:05:54;;;;;;;14.38;9.73;;;;;;;;;;5051557;28;20114;-57
2023/04/20 13:08:21;;;;;;;13.40;9.02;;;;;;;;;;5051386;28;20083;-52
2023/04/20 13:10:48;;;;;;;14.77;9.02;;;;;;;;;;5051519;28;20053;-57
2023/04/20 13:13:15;;;;;;;13.13;8.73;;;;;;;;;;5051374;28;20045;-56
2023/04/20 13:15:43;;;;;;;15.15;8.70;;;;;;;;;;5050939;28;20095;-57
2023/04/20 13:18:10;;;;;;;15.63;9.52;;;;;;;;;;5050343;28;20083;-56
2023/04/20 13:20:37;;;;;;;15.98;10.35;;;;;;;;;;5051283;28;20231;-56
2023/04/20 13:23:04;;;;;;;15.70;10.60;;;;;;;;;;5051518;28;20064;-56
2023/04/20 13:25:32;;;;;;;14.77;9.85;;;;;;;;;;5051315;28;20049;-55
2023/04/20 13:27:59;;;;;;;19.33;9.90;;;;;;;;;;5050832;28;20099;-56
2023/04/20 13:30:27;;;;;;;16.10;10.15;;;;;;;;;;5051103;28;20382;-56
2023/04/20 13:32:55;;;;;;;15.90;9.90;;;;;;;;;;5051136;28;20052;-53
2023/04/20 13:35:22;;;;;;;15.20;9.82;;;;;;;;;;5050705;28;20056;-55
2023/04/20 13:37:49;;;;;;;18.05;9.73;;;;;;;;;;5050690;28;20045;-55
2023/04/20 13:40:16;;;;;;;16.60;10.20;;;;;;;;;;5050924;28;20098;-54
2023/04/20 13:42:43;;;;;;;16.17;9.85;;;;;;;;;;5051009;28;20328;-56
2023/04/20 13:45:10;;;;;;;15.68;9.23;;;;;;;;;;5050857;28;20056;-55
2023/04/20 13:47:37;;;;;;;18.23;10.93;;;;;;;;;;5051778;28;20510;-57
2023/04/20 13:50:07;;;;;;;16.67;9.55;;;;;;;;;;5050696;28;20052;-55
2023/04/20 13:52:34;;;;;;;16.80;10.07;;;;;;;;;;5050822;28;20045;-56
2023/04/20 13:55:01;;;;;;;15.95;10.48;;;;;;;;;;5050850;28;20045;-55
2023/04/20 13:57:30;;;;;;;16.85;9.80;;;;;;;;;;5050665;28;20044;-56
2023/04/20 13:59:57;;;;;;;21.35;11.07;;;;;;;;;;5050372;28;20091;-55
2023/04/20 14:02:24;;;;;;;17.23;9.93;;;;;;;;;;5037856;28;20533;-59
2023/04/20 14:04:51;;;;;;;17.35;10.32;;;;;;;;;;5030613;28;20140;-55
2023/04/20 14:07:19;;;;;;;17.35;10.88;;;;;;;;;;5030715;28;20053;-55
2023/04/20 14:09:46;;;;;;;20.08;11.10;;;;;;;;;;5030137;28;20072;-56
2023/04/20 14:12:14;;;;;;;18.23;10.85;;;;;;;;;;5030522;28;20103;-55
2023/04/20 14:14:41;;;;;;;21.00;11.70;;;;;;;;;;5030365;28;20049;-57
2023/04/20 14:17:10;;;;;;;17.23;10.52;;;;;;;;;;5030294;28;20045;-56
2023/04/20 14:19:37;;;;;;;18.67;11.88;;;;;;;;;;5029703;28;20068;-56
2023/04/20 14:22:04;;;;;;;16.77;10.52;;;;;;;;;;5030428;28;20050;-55
2023/04/20 14:24:32;;;;;;;20.40;11.10;;;;;;;;;;5030380;28;20049;-56
2023/04/20 14:26:59;;;;;;;17.67;10.38;;;;;;;;;;5030244;28;20080;-57
2023/04/20 14:29:26;;;;;;;19.23;11.05;;;;;;;;;;5029421;28;20387;-57
2023/04/20 14:31:53;;;;;;;18.30;11.93;;;;;;;;;;5030109;28;20049;-58
2023/04/20 14:34:20;;;;;;;19.77;11.45;;;;;;;;;;5029933;28;20046;-56
2023/04/20 14:36:48;;;;;;;17.75;10.77;;;;;;;;;;5030360;28;20056;-57